Rechercher aéroport 
image banner adimage banner adimage banner ad
image banner ad

KRBL - Red Bluff Muni

Situé à Red Bluff, United States

ICAO - RBL, IATA -

Données fournies par Airmate  

Information générale

Coordonnées: N40°9'1" W122°15'8"
Élévation : 352 feet MSL.
Variation magnétique : 17° East
Voir autres Aéroports à California

Données opérationnelles

Special qualification required
Heure actuelle UTC:
Heure actuelle locale:
Météo
METAR: KRBL 210154Z AUTO 33009KT 10SM CLR 32/M01 A2992 RMK AO2 SLP126 T03221006
TAF: KRBL 202320Z 2100/2124 34015G25KT P6SM SKC FM210200 33008KT P6SM SKC FM212100 16006KT P6SM SKC
Voir NOTAMs / SUP AIP / TFR affectant cet aéroport [VIEW]
Fréquences de communication: [VIEW]

Pistes:

Identifiant RWYQFULongueur (ft)Largeur (ft)SurfaceLDA (ft)
15168°5431100ASPH
33348°5431100ASPH

Coordonnées de l'aéroport

Adresse: Red Bluff United States

Vue satellite de KRBL